createdAt,value
2022-08-03T00:02:17.422Z,20.30
2022-08-03T00:04:45.349Z,20.30
2022-08-03T00:07:12.520Z,20.30
2022-08-03T00:09:39.732Z,20.20
2022-08-03T00:12:07.452Z,20.20
2022-08-03T00:14:34.793Z,20.20
2022-08-03T00:17:02.135Z,20.20
2022-08-03T00:19:29.466Z,20.10
2022-08-03T00:21:56.810Z,20.20
2022-08-03T00:24:23.980Z,20.10
2022-08-03T00:26:51.211Z,20.10
2022-08-03T00:29:18.424Z,20.10
2022-08-03T00:31:59.160Z,20.10
2022-08-03T00:34:36.438Z,20.10
2022-08-03T00:37:16.355Z,20.00
2022-08-03T00:39:45.835Z,20.00
2022-08-03T00:42:13.499Z,20.00
2022-08-03T00:44:42.036Z,19.90
2022-08-03T00:47:10.323Z,19.80
2022-08-03T00:49:39.107Z,19.70
2022-08-03T00:52:11.693Z,19.70
2022-08-03T00:54:39.239Z,19.70
2022-08-03T00:57:07.160Z,19.70
2022-08-03T00:59:34.710Z,19.70
2022-08-03T01:02:02.300Z,19.70
2022-08-03T01:04:29.458Z,19.60
2022-08-03T01:07:21.750Z,19.50
2022-08-03T01:09:54.969Z,19.50
2022-08-03T01:12:31.417Z,19.40
2022-08-03T01:15:07.406Z,19.30
2022-08-03T01:17:44.069Z,19.30
2022-08-03T01:20:16.806Z,19.20
2022-08-03T01:23:30.370Z,19.30
2022-08-03T01:26:48.172Z,19.20
2022-08-03T01:29:56.557Z,19.20
2022-08-03T01:32:52.495Z,19.20
2022-08-03T01:35:35.437Z,19.00
2022-08-03T01:38:11.994Z,18.90
2022-08-03T01:40:41.273Z,18.80
2022-08-03T01:43:11.626Z,18.60
2022-08-03T01:45:40.155Z,18.50
2022-08-03T01:48:07.997Z,18.50
2022-08-03T01:50:36.250Z,18.40
2022-08-03T01:53:04.050Z,18.40
2022-08-03T01:55:33.183Z,18.40
2022-08-03T01:58:05.591Z,18.40
2022-08-03T02:00:37.311Z,18.30
2022-08-03T02:03:07.034Z,18.20
2022-08-03T02:05:35.254Z,18.00
2022-08-03T02:08:04.978Z,18.00
2022-08-03T02:10:34.917Z,18.00
2022-08-03T02:13:06.603Z,18.00
2022-08-03T02:15:35.686Z,18.10
2022-08-03T02:18:04.854Z,18.10
2022-08-03T02:20:36.177Z,18.10
2022-08-03T02:23:03.886Z,18.10
2022-08-03T02:25:33.301Z,18.00
2022-08-03T02:28:17.572Z,18.00
2022-08-03T02:30:51.819Z,17.90
2022-08-03T02:33:32.678Z,17.90
2022-08-03T02:36:02.528Z,17.90
2022-08-03T02:38:35.941Z,17.90
2022-08-03T02:41:07.822Z,17.90
2022-08-03T02:43:39.244Z,17.90
2022-08-03T02:46:35.154Z,17.80
2022-08-03T02:49:41.157Z,17.70
2022-08-03T02:51:54.669Z,17.60
2022-08-03T02:54:25.038Z,17.60
2022-08-03T02:56:56.194Z,17.60
2022-08-03T02:59:23.767Z,17.60
2022-08-03T03:01:54.374Z,17.70
2022-08-03T03:04:22.406Z,17.70
2022-08-03T03:06:54.310Z,17.60
2022-08-03T03:09:25.606Z,17.60
2022-08-03T03:12:13.073Z,17.60
2022-08-03T03:14:43.394Z,17.70
2022-08-03T03:17:11.977Z,17.70
2022-08-03T03:19:42.086Z,17.70
2022-08-03T03:22:12.326Z,17.70
2022-08-03T03:24:42.738Z,17.70
2022-08-03T03:27:10.445Z,17.70
2022-08-03T03:30:04.274Z,17.70
2022-08-03T03:32:33.750Z,17.70
2022-08-03T03:35:01.849Z,17.80
2022-08-03T03:37:29.194Z,17.80
2022-08-03T03:39:58.896Z,17.80
2022-08-03T03:42:35.099Z,17.80
2022-08-03T03:45:13.885Z,17.80
2022-08-03T03:47:41.349Z,17.80
2022-08-03T03:50:10.817Z,17.80
2022-08-03T03:52:38.055Z,17.80
2022-08-03T03:55:05.710Z,17.90
2022-08-03T03:57:34.513Z,17.80
2022-08-03T04:00:01.788Z,17.90
2022-08-03T04:02:31.663Z,17.90
2022-08-03T04:05:17.438Z,17.90
2022-08-03T04:08:19.215Z,18.00
2022-08-03T04:10:59.307Z,18.00
2022-08-03T04:13:40.621Z,18.00
2022-08-03T04:16:10.189Z,18.00
2022-08-03T04:18:40.276Z,18.00
2022-08-03T04:21:11.300Z,18.00
2022-08-03T04:23:44.552Z,18.00
2022-08-03T04:26:14.952Z,18.00
2022-08-03T04:28:45.973Z,18.00
2022-08-03T04:31:16.009Z,18.10
2022-08-03T04:33:45.083Z,18.10
2022-08-03T04:36:16.949Z,18.30
2022-08-03T04:39:03.755Z,18.60
2022-08-03T04:41:31.991Z,18.90
2022-08-03T04:44:00.820Z,19.20
2022-08-03T04:46:38.786Z,19.40
2022-08-03T04:49:09.971Z,19.70
2022-08-03T04:51:40.445Z,19.90
2022-08-03T04:54:12.561Z,20.10
2022-08-03T04:56:41.480Z,20.40
2022-08-03T04:59:09.474Z,20.70
2022-08-03T05:01:37.107Z,21.00
2022-08-03T05:04:04.421Z,21.20
2022-08-03T05:06:31.759Z,21.40
2022-08-03T05:08:58.960Z,21.40
2022-08-03T05:11:26.338Z,21.40
2022-08-03T05:13:53.504Z,21.50
2022-08-03T05:16:20.768Z,21.70
2022-08-03T05:18:48.016Z,21.90
2022-08-03T05:21:16.749Z,22.30
2022-08-03T05:23:44.651Z,22.50
2022-08-03T05:26:12.028Z,22.70
2022-08-03T05:28:39.582Z,22.90
2022-08-03T05:31:18.909Z,23.10
2022-08-03T05:33:47.773Z,23.30
2022-08-03T05:36:14.969Z,23.60
2022-08-03T05:38:42.185Z,24.00
2022-08-03T05:41:21.154Z,24.40
2022-08-03T05:43:52.743Z,24.80
2022-08-03T05:46:21.013Z,25.10
2022-08-03T05:48:48.280Z,25.20
2022-08-03T05:51:15.479Z,25.40
2022-08-03T05:53:43.513Z,25.60
2022-08-03T05:56:15.319Z,26.00
2022-08-03T05:58:47.192Z,26.30
2022-08-03T06:01:16.258Z,26.70
2022-08-03T06:03:44.784Z,26.90
2022-08-03T06:06:12.147Z,27.00
2022-08-03T06:08:40.696Z,27.10
2022-08-03T06:11:08.429Z,27.40
2022-08-03T06:13:35.988Z,27.60
2022-08-03T06:16:03.723Z,27.50
2022-08-03T06:18:31.255Z,27.60
2022-08-03T06:20:58.462Z,27.70
2022-08-03T06:23:53.062Z,28.00
2022-08-03T06:26:26.497Z,28.50
2022-08-03T06:28:56.566Z,28.80
2022-08-03T06:31:32.439Z,29.00
2022-08-03T06:34:32.155Z,29.30
2022-08-03T06:36:54.776Z,29.50
2022-08-03T06:39:29.618Z,29.70
2022-08-03T06:42:01.611Z,29.70
2022-08-03T06:44:33.505Z,29.50
2022-08-03T06:47:00.691Z,29.50
2022-08-03T06:49:31.573Z,29.70
2022-08-03T06:52:06.953Z,30.10
2022-08-03T06:54:37.760Z,30.60
2022-08-03T06:57:10.204Z,31.00
2022-08-03T07:00:09.402Z,31.30
2022-08-03T07:02:29.678Z,31.30
2022-08-03T07:04:57.457Z,31.40
2022-08-03T07:07:27.456Z,31.20
2022-08-03T07:09:56.609Z,31.20
2022-08-03T07:12:26.782Z,30.90
2022-08-03T07:14:59.568Z,30.60
2022-08-03T07:17:28.545Z,30.30
2022-08-03T07:19:55.747Z,29.80
2022-08-03T07:22:23.596Z,29.20
2022-08-03T07:24:50.763Z,28.70
2022-08-03T07:27:18.112Z,28.20
2022-08-03T07:29:45.331Z,27.70
2022-08-03T07:32:12.641Z,27.30
2022-08-03T07:34:40.066Z,26.90
2022-08-03T07:37:07.628Z,26.60
2022-08-03T07:39:35.005Z,26.50
2022-08-03T07:42:02.183Z,26.20
2022-08-03T07:44:29.366Z,26.10
2022-08-03T07:46:57.319Z,26.00
2022-08-03T07:49:25.521Z,25.90
2022-08-03T07:52:11.240Z,25.80
2022-08-03T07:54:38.538Z,25.80
2022-08-03T07:57:05.777Z,25.80
2022-08-03T08:00:01.760Z,25.80
2022-08-03T08:02:22.306Z,25.80
2022-08-03T08:04:49.518Z,25.90
2022-08-03T08:07:16.917Z,26.00
2022-08-03T08:09:45.496Z,26.00
2022-08-03T08:12:15.225Z,26.20
2022-08-03T08:14:45.703Z,26.20
2022-08-03T08:17:13.576Z,26.10
2022-08-03T08:19:47.507Z,26.20
2022-08-03T08:22:23.500Z,26.30
2022-08-03T08:24:58.963Z,26.40
2022-08-03T08:27:26.554Z,26.50
2022-08-03T08:29:55.728Z,26.60
2022-08-03T08:32:26.132Z,26.70
2022-08-03T08:34:54.026Z,26.80
2022-08-03T08:37:21.179Z,27.00
2022-08-03T08:39:48.438Z,27.10
2022-08-03T08:42:15.950Z,27.30
2022-08-03T08:44:43.210Z,27.40
2022-08-03T08:47:10.639Z,27.50
2022-08-03T08:49:40.032Z,27.60
2022-08-03T08:52:25.267Z,27.80
2022-08-03T08:55:00.178Z,28.20
2022-08-03T08:57:44.738Z,29.40
2022-08-03T09:00:16.401Z,30.90
2022-08-03T09:02:45.041Z,32.00
2022-08-03T09:05:17.461Z,32.60
2022-08-03T09:07:46.209Z,33.40
2022-08-03T09:10:18.811Z,34.30
2022-08-03T09:12:48.903Z,35.00
2022-08-03T09:15:17.859Z,35.10
2022-08-03T09:17:50.380Z,35.30
2022-08-03T09:20:19.176Z,35.90
2022-08-03T09:22:54.819Z,36.80
2022-08-03T09:25:37.877Z,37.30
2022-08-03T09:29:00.140Z,37.20
2022-08-03T09:31:04.053Z,36.30
2022-08-03T09:33:34.799Z,36.30
2022-08-03T09:36:03.719Z,37.00
2022-08-03T09:38:30.941Z,37.80
2022-08-03T09:41:00.805Z,38.00
2022-08-03T09:43:28.662Z,38.00
2022-08-03T09:46:07.258Z,38.10
2022-08-03T09:48:35.521Z,38.30
2022-08-03T09:51:13.167Z,38.70
2022-08-03T09:53:57.093Z,38.50
2022-08-03T09:56:40.817Z,38.70
2022-08-03T09:59:08.577Z,38.70
2022-08-03T10:01:37.258Z,38.70
2022-08-03T10:04:05.324Z,39.00
2022-08-03T10:06:32.920Z,39.20
2022-08-03T10:09:16.762Z,39.10
2022-08-03T10:11:46.842Z,38.10
2022-08-03T10:14:18.970Z,37.80
2022-08-03T10:16:47.521Z,38.40
2022-08-03T10:19:15.653Z,38.80
2022-08-03T10:21:53.660Z,39.00
2022-08-03T10:24:27.060Z,39.20
2022-08-03T10:27:02.232Z,39.20
2022-08-03T10:29:32.674Z,39.70
2022-08-03T10:32:04.245Z,39.40
2022-08-03T10:34:39.243Z,38.90
2022-08-03T10:37:11.722Z,39.10
2022-08-03T10:39:53.161Z,38.90
2022-08-03T10:42:28.222Z,39.10
2022-08-03T10:45:05.617Z,39.30
2022-08-03T10:47:34.111Z,39.70
2022-08-03T10:50:02.235Z,40.30
2022-08-03T10:52:33.642Z,40.70
2022-08-03T10:55:42.218Z,40.60
2022-08-03T10:58:11.653Z,40.70
2022-08-03T11:00:50.247Z,40.20
2022-08-03T11:03:18.537Z,39.80
2022-08-03T11:05:48.978Z,39.80
2022-08-03T11:08:24.556Z,39.90
2022-08-03T11:10:58.793Z,40.30
2022-08-03T11:13:28.310Z,40.80
2022-08-03T11:15:59.988Z,40.90
2022-08-03T11:18:29.904Z,40.90
2022-08-03T11:20:59.931Z,41.20
2022-08-03T11:24:04.408Z,41.40
2022-08-03T11:26:34.217Z,41.10
2022-08-03T11:29:27.893Z,39.90
2022-08-03T11:31:55.305Z,39.40
2022-08-03T11:34:24.262Z,39.20
2022-08-03T11:37:28.575Z,38.80
2022-08-03T11:39:58.804Z,38.60
2022-08-03T11:42:27.016Z,39.00
2022-08-03T11:44:59.083Z,39.60
2022-08-03T11:47:30.074Z,40.20
2022-08-03T11:50:00.254Z,41.00
2022-08-03T11:52:33.891Z,41.30
2022-08-03T11:55:01.722Z,41.90
2022-08-03T11:59:16.499Z,42.10
2022-08-03T12:00:21.729Z,42.10
2022-08-03T12:02:57.385Z,42.10
2022-08-03T12:05:39.678Z,41.70
2022-08-03T12:08:09.158Z,42.30
2022-08-03T12:10:37.630Z,42.40
2022-08-03T12:14:10.662Z,42.40
2022-08-03T12:15:57.564Z,41.50
2022-08-03T12:18:25.195Z,41.90
2022-08-03T12:21:02.912Z,40.80
2022-08-03T12:23:30.470Z,40.60
2022-08-03T12:26:05.838Z,40.50
2022-08-03T12:28:37.769Z,40.20
2022-08-03T12:31:07.402Z,41.00
2022-08-03T12:33:59.402Z,41.40
2022-08-03T12:36:27.799Z,41.90
2022-08-03T12:38:57.734Z,42.70
2022-08-03T12:41:30.203Z,43.50
2022-08-03T12:43:57.706Z,44.20
2022-08-03T12:46:34.038Z,44.20
2022-08-03T12:49:15.112Z,44.30
2022-08-03T12:51:42.360Z,44.40
2022-08-03T12:54:24.602Z,44.20
2022-08-03T12:56:59.835Z,43.70
2022-08-03T12:59:32.372Z,43.50
2022-08-03T13:02:04.504Z,42.70
2022-08-03T13:04:37.058Z,42.40
2022-08-03T13:07:06.620Z,42.80
2022-08-03T13:09:43.971Z,42.30
2022-08-03T13:12:11.278Z,41.80
2022-08-03T13:14:39.157Z,41.80
2022-08-03T13:17:06.975Z,42.30
2022-08-03T13:19:38.702Z,42.90
2022-08-03T13:22:18.078Z,42.70
2022-08-03T13:24:46.449Z,43.40
2022-08-03T13:28:11.075Z,43.80
2022-08-03T13:30:02.244Z,44.30
2022-08-03T13:32:29.689Z,44.50
2022-08-03T13:34:57.045Z,44.40
2022-08-03T13:37:24.831Z,44.30
2022-08-03T13:39:59.306Z,44.10
2022-08-03T13:42:32.660Z,44.30
2022-08-03T13:45:00.905Z,44.30
2022-08-03T13:47:28.541Z,44.00
2022-08-03T13:50:00.516Z,43.90
2022-08-03T13:52:31.503Z,44.00
2022-08-03T13:54:59.024Z,43.20
2022-08-03T13:58:05.652Z,43.10
2022-08-03T14:00:26.495Z,43.50
2022-08-03T14:03:13.379Z,44.10
2022-08-03T14:05:43.255Z,44.30
2022-08-03T14:08:10.965Z,43.70
2022-08-03T14:10:41.007Z,43.50
2022-08-03T14:13:08.888Z,43.60
2022-08-03T14:15:37.496Z,43.70
2022-08-03T14:18:15.457Z,43.90
2022-08-03T14:20:49.040Z,43.50
2022-08-03T14:23:18.335Z,43.10
2022-08-03T14:25:52.441Z,42.50
2022-08-03T14:28:24.110Z,42.80
2022-08-03T14:30:55.851Z,42.90
2022-08-03T14:33:23.570Z,42.60
2022-08-03T14:35:51.722Z,42.30
2022-08-03T14:38:19.471Z,42.30
2022-08-03T14:40:46.909Z,42.50
2022-08-03T14:43:15.328Z,42.40
2022-08-03T14:45:42.644Z,42.40
2022-08-03T14:50:28.955Z,42.60
2022-08-03T14:50:57.158Z,43.00
2022-08-03T14:53:24.794Z,43.30
2022-08-03T14:55:53.257Z,43.40
2022-08-03T14:58:27.651Z,43.70
2022-08-03T15:00:55.908Z,44.10
2022-08-03T15:03:24.796Z,43.50
2022-08-03T15:05:53.696Z,43.40
2022-08-03T15:08:22.588Z,43.70
2022-08-03T15:10:50.612Z,43.70
2022-08-03T15:13:19.609Z,43.90
2022-08-03T15:15:48.300Z,44.00
2022-08-03T15:18:15.824Z,44.10
2022-08-03T15:20:45.365Z,43.90
2022-08-03T15:23:15.765Z,43.70
2022-08-03T15:26:28.639Z,43.80
2022-08-03T15:28:32.426Z,44.30
2022-08-03T15:31:00.597Z,44.00
2022-08-03T15:33:29.093Z,43.60
2022-08-03T15:35:57.197Z,43.00
2022-08-03T15:38:27.048Z,42.90
2022-08-03T15:40:55.472Z,42.40
2022-08-03T15:43:26.475Z,42.00
2022-08-03T15:49:23.069Z,41.30
2022-08-03T15:52:12.750Z,41.50
2022-08-03T15:54:54.039Z,41.00
2022-08-03T15:59:09.295Z,39.80
2022-08-03T16:07:30.419Z,38.00
2022-08-03T16:10:33.769Z,37.70
2022-08-03T16:17:42.234Z,38.80
2022-08-03T16:28:00.450Z,39.40
2022-08-03T16:32:32.156Z,38.10
2022-08-03T16:36:22.595Z,37.10
2022-08-03T16:43:02.274Z,35.20
2022-08-03T16:49:59.703Z,34.20
2022-08-03T17:04:33.602Z,33.40
2022-08-03T17:07:50.783Z,33.30
2022-08-03T17:10:27.084Z,33.10
2022-08-03T17:12:55.022Z,33.00
2022-08-03T17:15:38.089Z,32.90
2022-08-03T17:18:17.659Z,32.90
2022-08-03T17:20:47.937Z,32.80
2022-08-03T17:23:34.459Z,32.80
2022-08-03T17:26:08.234Z,32.70
2022-08-03T17:28:52.121Z,32.60
2022-08-03T17:31:31.129Z,32.50
2022-08-03T17:34:04.557Z,32.40
2022-08-03T17:37:02.176Z,32.30
2022-08-03T17:39:41.713Z,32.20
2022-08-03T17:42:29.006Z,32.10
2022-08-03T17:45:07.382Z,32.00
2022-08-03T17:47:44.798Z,31.90
2022-08-03T17:54:18.295Z,31.80
2022-08-03T18:00:29.469Z,31.60
2022-08-03T18:03:59.245Z,31.50
2022-08-03T18:06:40.033Z,31.40
2022-08-03T18:10:06.410Z,31.30
2022-08-03T18:12:28.383Z,31.30
2022-08-03T18:15:20.810Z,31.20
2022-08-03T18:17:55.108Z,31.10
2022-08-03T18:20:41.137Z,31.00
2022-08-03T18:26:37.516Z,30.80
2022-08-03T18:29:09.531Z,30.70
2022-08-03T18:32:17.016Z,30.60
2022-08-03T18:35:15.778Z,30.40
2022-08-03T18:38:18.798Z,30.30
2022-08-03T18:40:57.993Z,30.10
2022-08-03T18:44:53.141Z,29.90
2022-08-03T19:36:49.151Z,26.80
2022-08-03T19:43:15.904Z,26.40
2022-08-03T19:46:52.745Z,26.30
2022-08-03T19:52:44.623Z,26.30
2022-08-03T19:56:08.860Z,26.30
2022-08-03T19:59:13.335Z,26.30
2022-08-03T20:01:52.839Z,26.30
2022-08-03T20:04:39.405Z,26.10
2022-08-03T20:07:22.919Z,25.90
2022-08-03T20:10:02.025Z,25.70
2022-08-03T20:13:05.678Z,25.60
2022-08-03T20:15:45.067Z,25.40
2022-08-03T20:18:20.308Z,25.30
2022-08-03T20:21:00.699Z,25.30
2022-08-03T20:23:40.989Z,25.50
2022-08-03T20:26:31.999Z,25.50
2022-08-03T20:29:42.632Z,25.40
2022-08-03T20:32:20.133Z,25.40
2022-08-03T20:34:56.942Z,25.40
2022-08-03T20:37:30.539Z,25.40
2022-08-03T20:39:58.385Z,25.40
2022-08-03T20:42:27.907Z,25.40
2022-08-03T20:45:12.972Z,25.40
2022-08-03T20:47:50.975Z,25.40
2022-08-03T20:50:23.392Z,25.40
2022-08-03T20:52:54.581Z,25.30
2022-08-03T20:55:47.799Z,25.20
2022-08-03T20:58:13.430Z,25.10
2022-08-03T21:00:43.864Z,24.90
2022-08-03T21:03:13.348Z,24.70
2022-08-03T21:05:51.502Z,24.60
2022-08-03T21:08:22.649Z,24.50
2022-08-03T21:10:53.203Z,24.40
2022-08-03T21:13:04.819Z,30.90
2022-08-03T21:13:28.992Z,24.40
2022-08-03T21:15:59.824Z,24.50
2022-08-03T21:18:50.600Z,24.50
2022-08-03T21:21:20.417Z,24.40
2022-08-03T21:23:53.198Z,24.40
2022-08-03T21:26:23.329Z,24.30
2022-08-03T21:28:53.148Z,24.20
2022-08-03T21:31:25.566Z,24.10
2022-08-03T21:33:59.450Z,23.90
2022-08-03T21:36:29.007Z,23.80
2022-08-03T21:38:57.695Z,23.70
2022-08-03T21:41:26.995Z,23.60
2022-08-03T21:43:54.384Z,23.50
2022-08-03T21:46:22.692Z,23.50
2022-08-03T21:48:56.459Z,23.40
2022-08-03T21:51:45.060Z,23.30
2022-08-03T21:54:13.443Z,23.20
2022-08-03T21:56:42.664Z,23.10
2022-08-03T21:59:17.371Z,23.00
2022-08-03T22:01:49.039Z,23.00
2022-08-03T22:04:50.963Z,22.90
2022-08-03T22:07:08.129Z,22.80
2022-08-03T22:09:36.293Z,22.70
2022-08-03T22:12:04.358Z,22.60
2022-08-03T22:14:34.354Z,22.60
2022-08-03T22:17:03.445Z,22.60
2022-08-03T22:19:33.721Z,22.60
2022-08-03T22:22:04.513Z,22.60
2022-08-03T22:24:35.070Z,22.70
2022-08-03T22:27:22.187Z,22.70
2022-08-03T22:29:51.418Z,22.70
2022-08-03T22:32:18.675Z,22.60
2022-08-03T22:34:47.514Z,22.60
2022-08-03T22:37:18.362Z,22.60
2022-08-03T22:39:46.151Z,22.70
2022-08-03T22:42:13.859Z,22.70
2022-08-03T22:44:41.123Z,22.60
2022-08-03T22:47:10.032Z,22.50
2022-08-03T22:49:38.395Z,22.50
2022-08-03T22:52:07.431Z,22.50
2022-08-03T22:54:35.727Z,22.40
2022-08-03T22:57:04.558Z,22.40
2022-08-03T22:59:40.064Z,22.40
2022-08-03T23:02:21.264Z,22.40
2022-08-03T23:04:57.291Z,22.40
2022-08-03T23:07:33.829Z,22.50
2022-08-03T23:10:04.581Z,22.50
2022-08-03T23:12:35.271Z,22.50
2022-08-03T23:15:05.246Z,22.50
2022-08-03T23:17:33.234Z,22.50
2022-08-03T23:20:06.335Z,22.50
2022-08-03T23:22:35.129Z,22.40
2022-08-03T23:25:04.690Z,22.40
2022-08-03T23:27:33.072Z,22.40
2022-08-03T23:30:01.918Z,22.50
2022-08-03T23:32:30.870Z,22.50
2022-08-03T23:35:22.676Z,22.50
2022-08-03T23:38:22.124Z,22.40
2022-08-03T23:40:51.554Z,22.30
2022-08-03T23:43:45.273Z,22.30
2022-08-03T23:46:10.019Z,22.10
2022-08-03T23:48:37.384Z,22.00
2022-08-03T23:51:12.919Z,21.80
2022-08-03T23:54:13.947Z,21.70
2022-08-03T23:56:53.098Z,21.60
2022-08-03T23:59:36.410Z,21.50
